createdAt,value
2022-11-29T00:01:41.474Z,-0.53
2022-11-29T00:04:10.357Z,-0.57
2022-11-29T00:06:39.243Z,-0.59
2022-11-29T00:09:11.802Z,-0.61
2022-11-29T00:12:00.787Z,-0.64
2022-11-29T00:14:29.724Z,-0.65
2022-11-29T00:17:02.781Z,-0.67
2022-11-29T00:19:33.096Z,-0.72
2022-11-29T00:22:02.117Z,-0.73
2022-11-29T00:24:32.693Z,-0.76
2022-11-29T00:27:01.553Z,-0.75
2022-11-29T00:29:30.450Z,-0.77
2022-11-29T00:31:59.426Z,-0.76
2022-11-29T00:34:28.399Z,-0.75
2022-11-29T00:36:56.688Z,-0.77
2022-11-29T00:39:25.065Z,-0.77
2022-11-29T00:41:53.387Z,-0.79
2022-11-29T00:44:22.009Z,-0.82
2022-11-29T00:46:50.224Z,-0.84
2022-11-29T00:49:18.636Z,-0.87
2022-11-29T00:51:47.728Z,-0.87
2022-11-29T00:54:16.999Z,-0.87
2022-11-29T00:56:45.297Z,-0.87
2022-11-29T00:59:13.571Z,-0.89
2022-11-29T01:01:41.884Z,-0.90
2022-11-29T01:04:10.336Z,-0.91
2022-11-29T01:06:38.716Z,-0.96
2022-11-29T01:09:07.332Z,-0.97
2022-11-29T01:11:35.691Z,-0.98
2022-11-29T01:14:04.727Z,-1.00
2022-11-29T01:16:33.160Z,-0.98
2022-11-29T01:19:01.587Z,-1.00
2022-11-29T01:21:30.954Z,-1.01
2022-11-29T01:24:01.856Z,-1.02
2022-11-29T01:26:30.600Z,-1.03
2022-11-29T01:28:59.740Z,-1.05
2022-11-29T01:31:36.538Z,-1.06
2022-11-29T01:34:06.810Z,-1.06
2022-11-29T01:36:35.836Z,-1.04
2022-11-29T01:39:06.266Z,-1.04
2022-11-29T01:41:36.904Z,-1.05
2022-11-29T01:44:30.954Z,-1.07
2022-11-29T01:46:59.233Z,-1.10
2022-11-29T01:49:39.411Z,-1.12
2022-11-29T01:52:16.806Z,-1.13
2022-11-29T01:54:51.143Z,-1.15
2022-11-29T01:57:21.015Z,-1.16
2022-11-29T01:59:52.696Z,-1.16
2022-11-29T02:02:28.560Z,-1.17
2022-11-29T02:05:00.822Z,-1.19
2022-11-29T02:07:29.145Z,-1.21
2022-11-29T02:09:57.507Z,-1.23
2022-11-29T02:12:49.790Z,-1.27
2022-11-29T02:15:46.562Z,-1.32
2022-11-29T02:18:26.745Z,-1.37
2022-11-29T02:21:04.413Z,-1.40
2022-11-29T02:24:13.735Z,-1.43
2022-11-29T02:27:03.289Z,-1.47
2022-11-29T02:29:57.925Z,-1.49
2022-11-29T02:32:41.544Z,-1.52
2022-11-29T02:35:28.405Z,-1.55
2022-11-29T02:38:06.948Z,-1.55
2022-11-29T02:41:01.218Z,-1.55
2022-11-29T02:43:44.845Z,-1.56
2022-11-29T02:46:29.127Z,-1.59
2022-11-29T02:49:08.621Z,-1.60
2022-11-29T02:51:43.016Z,-1.62
2022-11-29T02:54:27.522Z,-1.66
2022-11-29T02:57:13.317Z,-1.69
2022-11-29T03:00:00.207Z,-1.72
2022-11-29T03:02:31.547Z,-1.78
2022-11-29T03:05:27.739Z,-1.80
2022-11-29T03:08:06.540Z,-1.85
2022-11-29T03:11:04.310Z,-1.86
2022-11-29T03:13:38.354Z,-1.90
2022-11-29T03:16:19.255Z,-1.91
2022-11-29T03:19:12.587Z,-1.95
2022-11-29T03:21:45.694Z,-1.98
2022-11-29T03:24:40.182Z,-1.99
2022-11-29T03:27:25.615Z,-1.98
2022-11-29T03:30:02.645Z,-2.00
2022-11-29T03:32:52.439Z,-2.01
2022-11-29T03:35:30.024Z,-2.03
2022-11-29T03:38:03.339Z,-2.04
2022-11-29T03:41:06.725Z,-2.05
2022-11-29T03:44:10.103Z,-1.99
2022-11-29T03:46:48.030Z,-1.98
2022-11-29T03:49:46.378Z,-1.95
2022-11-29T03:52:52.377Z,-1.93
2022-11-29T03:55:48.814Z,-1.93
2022-11-29T03:58:32.539Z,-1.96
2022-11-29T04:01:22.473Z,-1.98
2022-11-29T04:04:13.496Z,-1.99
2022-11-29T04:07:00.208Z,-2.05
2022-11-29T04:10:06.325Z,-2.07
2022-11-29T04:12:49.229Z,-2.11
2022-11-29T04:15:49.606Z,-2.16
2022-11-29T04:18:55.367Z,-2.19
2022-11-29T04:22:07.870Z,-2.22
2022-11-29T04:25:01.099Z,-2.25
2022-11-29T04:27:41.876Z,-2.24
2022-11-29T04:30:20.693Z,-2.25
2022-11-29T04:33:27.847Z,-2.27
2022-11-29T04:36:14.817Z,-2.27
2022-11-29T04:39:12.406Z,-2.27
2022-11-29T04:42:29.025Z,-2.30
2022-11-29T04:45:35.591Z,-2.33
2022-11-29T04:48:49.059Z,-2.35
2022-11-29T04:51:40.528Z,-2.36
2022-11-29T04:54:22.363Z,-2.38
2022-11-29T04:56:55.276Z,-2.37
2022-11-29T04:59:50.216Z,-2.37
2022-11-29T05:02:51.649Z,-2.36
2022-11-29T05:05:48.190Z,-2.36
2022-11-29T05:08:31.204Z,-2.36
2022-11-29T05:11:11.758Z,-2.35
2022-11-29T05:13:53.343Z,-2.34
2022-11-29T05:16:46.706Z,-2.34
2022-11-29T05:19:30.037Z,-2.30
2022-11-29T05:22:09.397Z,-2.27
2022-11-29T05:24:47.067Z,-2.27
2022-11-29T05:27:21.528Z,-2.26
2022-11-29T05:30:02.429Z,-2.26
2022-11-29T05:32:33.937Z,-2.23
2022-11-29T05:35:18.634Z,-2.22
2022-11-29T05:37:59.911Z,-2.22
2022-11-29T05:40:28.125Z,-2.22
2022-11-29T05:43:02.538Z,-2.21
2022-11-29T05:45:46.957Z,-2.20
2022-11-29T05:48:26.757Z,-2.18
2022-11-29T05:51:22.371Z,-2.16
2022-11-29T05:54:08.568Z,-2.15
2022-11-29T05:56:49.500Z,-2.12
2022-11-29T05:59:30.708Z,-2.08
2022-11-29T06:02:02.095Z,-2.05
2022-11-29T06:04:48.409Z,-2.04
2022-11-29T06:07:24.951Z,-2.03
2022-11-29T06:10:29.885Z,-2.04
2022-11-29T06:13:22.192Z,-2.02
2022-11-29T06:16:02.327Z,-2.01
2022-11-29T06:22:50.801Z,-2.00
2022-11-29T06:25:36.169Z,-1.95
2022-11-29T06:28:05.170Z,-1.82
2022-11-29T06:31:03.668Z,-1.67
2022-11-29T06:33:46.917Z,-1.45
2022-11-29T06:36:31.453Z,-1.22
2022-11-29T06:38:59.982Z,-1.02
2022-11-29T06:41:28.638Z,-0.84
2022-11-29T06:43:57.261Z,-0.64
2022-11-29T06:46:39.483Z,-0.43
2022-11-29T06:49:27.236Z,-0.24
2022-11-29T06:52:25.766Z,-0.06
2022-11-29T06:55:12.561Z,0.19
2022-11-29T06:58:10.929Z,0.45
2022-11-29T07:00:48.270Z,0.72
2022-11-29T07:03:35.550Z,0.93
2022-11-29T07:06:14.003Z,1.14
2022-11-29T07:08:43.368Z,1.33
2022-11-29T07:11:14.470Z,1.52
2022-11-29T07:13:43.035Z,1.75
2022-11-29T07:16:57.563Z,1.96
2022-11-29T07:19:54.485Z,2.18
2022-11-29T07:22:46.890Z,2.32
2022-11-29T07:25:21.409Z,2.52
2022-11-29T07:28:02.693Z,2.69
2022-11-29T07:30:48.042Z,2.86
2022-11-29T07:33:30.345Z,2.92
2022-11-29T07:36:13.982Z,3.04
2022-11-29T07:39:09.839Z,3.18
2022-11-29T07:41:55.978Z,3.26
2022-11-29T07:44:56.336Z,3.38
2022-11-29T07:47:24.573Z,3.55
2022-11-29T07:49:52.929Z,3.67
2022-11-29T07:52:21.175Z,3.75
2022-11-29T07:54:49.470Z,3.83
2022-11-29T07:57:17.788Z,3.90
2022-11-29T07:59:46.242Z,4.03
2022-11-29T08:02:14.728Z,4.15
2022-11-29T08:04:46.986Z,4.24
2022-11-29T08:07:15.550Z,4.31
2022-11-29T08:09:44.279Z,4.36
2022-11-29T08:12:12.793Z,4.42
2022-11-29T08:14:41.053Z,4.51
2022-11-29T08:17:09.746Z,4.59
2022-11-29T08:19:38.227Z,4.74
2022-11-29T08:22:06.618Z,4.85
2022-11-29T08:24:34.877Z,5.03
2022-11-29T08:27:03.228Z,5.25
2022-11-29T08:29:31.508Z,5.39
2022-11-29T08:31:59.807Z,5.49
2022-11-29T08:34:28.380Z,5.61
2022-11-29T08:36:56.815Z,5.75
2022-11-29T08:39:25.189Z,5.88
2022-11-29T08:41:53.526Z,5.97
2022-11-29T08:44:21.877Z,6.10
2022-11-29T08:47:08.779Z,6.20
2022-11-29T08:49:56.985Z,6.36
2022-11-29T08:52:44.033Z,6.36
2022-11-29T08:55:12.326Z,6.45
2022-11-29T08:57:41.268Z,6.49
2022-11-29T09:00:11.043Z,6.54
2022-11-29T09:02:39.958Z,6.62
2022-11-29T09:05:10.343Z,6.71
2022-11-29T09:07:39.221Z,6.83
2022-11-29T09:10:09.223Z,6.88
2022-11-29T09:12:39.593Z,6.97
2022-11-29T09:15:10.876Z,7.03
2022-11-29T09:17:39.164Z,7.13
2022-11-29T09:20:08.487Z,7.20
2022-11-29T09:22:36.742Z,7.26
2022-11-29T09:25:05.490Z,7.29
2022-11-29T09:27:33.746Z,7.40
2022-11-29T09:30:02.040Z,7.39
2022-11-29T09:32:31.624Z,7.44
2022-11-29T09:34:59.857Z,7.49
2022-11-29T09:37:28.156Z,7.48
2022-11-29T09:39:56.399Z,7.49
2022-11-29T09:42:30.562Z,7.46
2022-11-29T09:45:07.382Z,7.45
2022-11-29T09:48:21.220Z,7.43
2022-11-29T09:51:15.700Z,7.43
2022-11-29T09:54:22.863Z,7.44
2022-11-29T09:56:52.939Z,7.59
2022-11-29T09:59:29.169Z,7.74
2022-11-29T10:02:21.428Z,7.98
2022-11-29T10:04:59.377Z,8.23
2022-11-29T10:07:39.721Z,8.46
2022-11-29T10:10:17.413Z,8.71
2022-11-29T10:13:05.132Z,8.85
2022-11-29T10:15:40.225Z,8.97
2022-11-29T10:18:32.604Z,9.08
2022-11-29T10:21:11.823Z,9.16
2022-11-29T10:23:56.611Z,9.31
2022-11-29T10:26:28.185Z,9.53
2022-11-29T10:28:59.830Z,9.75
2022-11-29T10:31:33.361Z,9.97
2022-11-29T10:34:08.223Z,10.13
2022-11-29T10:36:41.874Z,10.21
2022-11-29T10:39:37.490Z,10.24
2022-11-29T10:42:33.032Z,10.41
2022-11-29T10:45:02.330Z,10.47
2022-11-29T10:47:32.208Z,10.57
2022-11-29T10:50:00.498Z,10.60
2022-11-29T10:52:28.715Z,10.67
2022-11-29T10:55:00.318Z,10.71
2022-11-29T10:57:28.873Z,10.61
2022-11-29T11:00:08.285Z,10.51
2022-11-29T11:02:38.210Z,10.58
2022-11-29T11:05:19.061Z,10.71
2022-11-29T11:07:57.663Z,10.71
2022-11-29T11:10:31.018Z,10.57
2022-11-29T11:13:19.448Z,10.49
2022-11-29T11:15:48.305Z,10.46
2022-11-29T11:18:22.927Z,10.39
2022-11-29T11:20:58.660Z,10.36
2022-11-29T11:23:30.944Z,10.23
2022-11-29T11:26:08.229Z,10.08
2022-11-29T11:28:48.331Z,9.98
2022-11-29T11:31:38.194Z,9.81
2022-11-29T11:34:30.101Z,9.73
2022-11-29T11:37:36.989Z,9.46
2022-11-29T11:40:29.883Z,9.16
2022-11-29T11:43:02.006Z,9.12
2022-11-29T11:45:35.165Z,9.16
2022-11-29T11:48:13.904Z,9.08
2022-11-29T11:50:49.672Z,9.03
2022-11-29T11:53:33.679Z,9.00
2022-11-29T11:56:10.698Z,8.97
2022-11-29T11:58:52.393Z,8.88
2022-11-29T12:01:37.055Z,8.86
2022-11-29T12:04:20.591Z,8.91
2022-11-29T12:07:05.624Z,9.04
2022-11-29T12:09:42.335Z,9.04
2022-11-29T12:12:30.169Z,8.76
2022-11-29T12:15:05.632Z,8.45
2022-11-29T12:17:42.003Z,8.39
2022-11-29T12:20:24.335Z,8.26
2022-11-29T12:22:55.392Z,8.22
2022-11-29T12:25:34.202Z,8.12
2022-11-29T12:28:02.497Z,7.97
2022-11-29T12:30:32.195Z,7.85
2022-11-29T12:33:05.944Z,7.76
2022-11-29T12:35:48.247Z,7.67
2022-11-29T12:38:31.754Z,7.64
2022-11-29T12:41:25.813Z,7.69
2022-11-29T12:44:35.618Z,7.82
2022-11-29T12:47:36.533Z,7.83
2022-11-29T12:50:35.978Z,7.85
2022-11-29T12:53:32.787Z,7.81
2022-11-29T12:56:22.313Z,7.61
2022-11-29T12:59:17.633Z,7.42
2022-11-29T13:01:48.772Z,7.32
2022-11-29T13:04:46.021Z,7.24
2022-11-29T13:07:26.886Z,7.05
2022-11-29T13:10:43.479Z,6.88
2022-11-29T13:13:15.090Z,6.67
2022-11-29T13:16:30.684Z,6.51
2022-11-29T13:19:43.245Z,6.27
2022-11-29T13:22:17.481Z,6.06
2022-11-29T13:24:51.923Z,6.00
2022-11-29T13:27:35.171Z,5.94
2022-11-29T13:30:05.220Z,5.85
2022-11-29T13:32:59.927Z,5.79
2022-11-29T13:35:50.268Z,5.72
2022-11-29T13:38:21.594Z,5.66
2022-11-29T13:40:49.789Z,5.60
2022-11-29T13:43:48.841Z,5.56
2022-11-29T13:46:38.754Z,5.49
2022-11-29T13:49:21.220Z,5.43
2022-11-29T13:52:04.803Z,5.33
2022-11-29T13:54:34.613Z,5.28
2022-11-29T13:57:09.298Z,5.23
2022-11-29T13:59:45.794Z,5.17
2022-11-29T14:02:30.495Z,5.08
2022-11-29T14:04:59.351Z,5.01
2022-11-29T14:07:27.765Z,4.93
2022-11-29T14:10:26.385Z,4.86
2022-11-29T14:12:57.817Z,4.76
2022-11-29T14:15:29.554Z,4.66
2022-11-29T14:18:01.416Z,4.57
2022-11-29T14:20:29.917Z,4.50
2022-11-29T14:23:07.887Z,4.42
2022-11-29T14:26:03.878Z,4.31
2022-11-29T14:28:34.668Z,4.22
2022-11-29T14:31:04.962Z,4.15
2022-11-29T14:34:07.160Z,4.06
2022-11-29T14:36:47.801Z,3.97
2022-11-29T14:39:47.220Z,3.88
2022-11-29T14:42:22.158Z,3.80
2022-11-29T14:44:58.431Z,3.73
2022-11-29T14:47:30.014Z,3.66
2022-11-29T14:50:01.872Z,3.61
2022-11-29T14:52:38.846Z,3.56
2022-11-29T14:55:29.828Z,3.50
2022-11-29T14:58:01.275Z,3.43
2022-11-29T15:00:36.567Z,3.36
2022-11-29T15:03:31.276Z,3.32
2022-11-29T15:06:08.758Z,3.27
2022-11-29T15:09:02.144Z,3.20
2022-11-29T15:11:50.426Z,3.14
2022-11-29T15:14:28.108Z,3.08
2022-11-29T15:17:20.001Z,3.05
2022-11-29T15:20:23.714Z,3.00
2022-11-29T15:22:58.405Z,2.93
2022-11-29T15:25:32.149Z,2.84
2022-11-29T15:28:06.117Z,2.74
2022-11-29T15:30:36.329Z,2.67
2022-11-29T15:33:07.668Z,2.62
2022-11-29T15:35:37.206Z,2.60
2022-11-29T15:38:05.547Z,2.61
2022-11-29T15:40:39.150Z,2.61
2022-11-29T15:43:25.839Z,2.59
2022-11-29T15:45:55.773Z,2.56
2022-11-29T15:48:27.130Z,2.50
2022-11-29T15:51:04.912Z,2.47
2022-11-29T15:53:47.286Z,2.40
2022-11-29T15:56:35.427Z,2.34
2022-11-29T15:59:12.982Z,2.26
2022-11-29T16:01:46.781Z,2.20
2022-11-29T16:04:21.750Z,2.11
2022-11-29T16:06:52.050Z,2.05
2022-11-29T16:09:29.988Z,1.99
2022-11-29T16:12:00.571Z,1.97
2022-11-29T16:14:29.628Z,2.00
2022-11-29T16:17:01.048Z,2.02
2022-11-29T16:19:38.275Z,2.06
2022-11-29T16:22:12.727Z,2.08
2022-11-29T16:25:15.639Z,2.12
2022-11-29T16:27:44.144Z,2.13
2022-11-29T16:30:24.911Z,2.14
2022-11-29T16:32:57.943Z,2.13
2022-11-29T16:35:33.395Z,2.11
2022-11-29T16:38:04.789Z,2.10
2022-11-29T16:40:35.582Z,2.10
2022-11-29T16:43:03.863Z,2.12
2022-11-29T16:45:35.125Z,2.08
2022-11-29T16:48:15.576Z,2.01
2022-11-29T16:50:43.967Z,1.94
2022-11-29T16:53:39.690Z,1.91
2022-11-29T16:56:13.523Z,1.86
2022-11-29T16:59:17.268Z,1.84
2022-11-29T17:01:31.907Z,1.88
2022-11-29T17:04:00.949Z,1.90
2022-11-29T17:06:30.249Z,1.90
2022-11-29T17:08:59.631Z,1.86
2022-11-29T17:11:27.994Z,1.79
2022-11-29T17:13:56.430Z,1.71
2022-11-29T17:16:25.296Z,1.69
2022-11-29T17:18:54.002Z,1.67
2022-11-29T17:21:24.876Z,1.68
2022-11-29T17:23:53.918Z,1.71
2022-11-29T17:26:22.457Z,1.68
2022-11-29T17:28:52.427Z,1.67
2022-11-29T17:31:23.659Z,1.63
2022-11-29T17:33:52.615Z,1.57
2022-11-29T17:36:22.028Z,1.53
2022-11-29T17:38:50.447Z,1.54
2022-11-29T17:41:22.713Z,1.52
2022-11-29T17:43:52.362Z,1.49
2022-11-29T17:46:27.153Z,1.44
2022-11-29T17:48:56.549Z,1.41
2022-11-29T17:54:13.612Z,1.30
2022-11-29T17:56:41.851Z,1.26
2022-11-29T17:59:10.218Z,1.22
2022-11-29T18:01:38.626Z,1.19
2022-11-29T18:04:08.612Z,1.18
2022-11-29T18:06:39.526Z,1.17
2022-11-29T18:09:08.819Z,1.16
2022-11-29T18:11:47.701Z,1.14
2022-11-29T18:14:20.794Z,1.13
2022-11-29T18:16:49.562Z,1.11
2022-11-29T18:19:20.655Z,1.08
2022-11-29T18:21:49.794Z,1.04
2022-11-29T18:24:18.721Z,0.98
2022-11-29T18:26:47.532Z,0.93
2022-11-29T18:29:16.027Z,0.86
2022-11-29T18:31:46.203Z,0.82
2022-11-29T18:34:15.478Z,0.78
2022-11-29T18:36:46.689Z,0.77
2022-11-29T18:39:17.805Z,0.76
2022-11-29T18:41:49.070Z,0.75
2022-11-29T18:44:20.477Z,0.71
2022-11-29T18:46:49.359Z,0.67
2022-11-29T18:49:18.579Z,0.62
2022-11-29T18:51:47.713Z,0.58
2022-11-29T18:54:19.070Z,0.57
2022-11-29T18:56:50.314Z,0.57
2022-11-29T18:59:18.648Z,0.55
2022-11-29T19:01:48.673Z,0.52
2022-11-29T19:04:21.294Z,0.49
2022-11-29T19:06:49.815Z,0.44
2022-11-29T19:09:22.261Z,0.40
2022-11-29T19:11:51.454Z,0.38
2022-11-29T19:14:19.969Z,0.35
2022-11-29T19:16:50.325Z,0.33
2022-11-29T19:19:19.151Z,0.31
2022-11-29T19:21:48.074Z,0.31
2022-11-29T19:24:18.357Z,0.32
2022-11-29T19:26:49.983Z,0.32
2022-11-29T19:29:18.719Z,0.33
2022-11-29T19:31:47.084Z,0.34
2022-11-29T19:34:15.476Z,0.33
2022-11-29T19:36:45.352Z,0.34
2022-11-29T19:39:16.101Z,0.33
2022-11-29T19:41:46.891Z,0.31
2022-11-29T19:44:15.569Z,0.26
2022-11-29T19:46:48.452Z,0.24
2022-11-29T19:49:16.929Z,0.23
2022-11-29T19:51:48.186Z,0.20
2022-11-29T19:54:16.546Z,0.17
2022-11-29T19:56:44.873Z,0.15
2022-11-29T19:59:13.577Z,0.16
2022-11-29T20:01:43.025Z,0.16
2022-11-29T20:04:13.925Z,0.14
2022-11-29T20:06:44.540Z,0.11
2022-11-29T20:09:14.281Z,0.08
2022-11-29T20:11:42.713Z,0.07
2022-11-29T20:14:12.586Z,0.06
2022-11-29T20:16:41.765Z,0.06
2022-11-29T20:19:12.544Z,0.06
2022-11-29T20:21:49.051Z,0.06
2022-11-29T20:24:19.582Z,0.06
2022-11-29T20:26:48.785Z,0.06
2022-11-29T20:29:18.080Z,0.07
2022-11-29T20:31:50.822Z,0.07
2022-11-29T20:34:20.087Z,0.07
2022-11-29T20:37:10.319Z,0.07
2022-11-29T20:39:52.457Z,0.09
2022-11-29T20:42:45.276Z,0.11
2022-11-29T20:45:15.049Z,0.12
2022-11-29T20:47:46.781Z,0.13
2022-11-29T20:50:23.138Z,0.11
2022-11-29T20:53:01.468Z,0.09
2022-11-29T20:55:30.744Z,0.07
2022-11-29T20:58:00.560Z,0.05
2022-11-29T21:00:28.888Z,0.03
2022-11-29T21:03:03.345Z,0.03
2022-11-29T21:05:42.032Z,0.03
2022-11-29T21:08:19.426Z,0.05
2022-11-29T21:10:49.466Z,0.07
2022-11-29T21:13:20.474Z,0.05
2022-11-29T21:15:49.133Z,0.02
2022-11-29T21:18:22.888Z,-0.01
2022-11-29T21:21:21.870Z,-0.03
2022-11-29T21:24:10.778Z,-0.07
2022-11-29T21:26:54.667Z,-0.13
2022-11-29T21:29:23.797Z,-0.15
2022-11-29T21:31:54.270Z,-0.15
2022-11-29T21:34:22.561Z,-0.17
2022-11-29T21:36:57.136Z,-0.18
2022-11-29T21:39:35.100Z,-0.19
2022-11-29T21:42:05.945Z,-0.23
2022-11-29T21:44:34.180Z,-0.24
2022-11-29T21:47:06.155Z,-0.25
2022-11-29T21:49:37.108Z,-0.25
2022-11-29T21:52:22.275Z,-0.24
2022-11-29T21:54:54.379Z,-0.24
2022-11-29T21:57:25.792Z,-0.24
2022-11-29T21:59:54.234Z,-0.26
2022-11-29T22:02:22.686Z,-0.27
2022-11-29T22:04:51.004Z,-0.29
2022-11-29T22:07:26.043Z,-0.32
2022-11-29T22:09:56.870Z,-0.33
2022-11-29T22:12:52.344Z,-0.33
2022-11-29T22:15:24.788Z,-0.34
2022-11-29T22:18:05.665Z,-0.35
2022-11-29T22:20:47.494Z,-0.35
2022-11-29T22:23:28.974Z,-0.36
2022-11-29T22:26:05.803Z,-0.38
2022-11-29T22:28:38.348Z,-0.40
2022-11-29T22:31:11.108Z,-0.40
2022-11-29T22:33:49.382Z,-0.41
2022-11-29T22:36:22.159Z,-0.42
2022-11-29T22:38:50.480Z,-0.43
2022-11-29T22:41:18.730Z,-0.45
2022-11-29T22:43:52.049Z,-0.46
2022-11-29T22:46:25.317Z,-0.47
2022-11-29T22:49:00.708Z,-0.48
2022-11-29T22:51:33.024Z,-0.47
2022-11-29T22:54:03.980Z,-0.48
2022-11-29T22:56:33.456Z,-0.48
2022-11-29T22:59:01.976Z,-0.50
2022-11-29T23:01:32.690Z,-0.51
2022-11-29T23:04:04.289Z,-0.52
2022-11-29T23:06:37.967Z,-0.53
2022-11-29T23:09:10.831Z,-0.53
2022-11-29T23:11:39.454Z,-0.55
2022-11-29T23:14:07.750Z,-0.57
2022-11-29T23:16:36.437Z,-0.60
2022-11-29T23:19:04.921Z,-0.63
2022-11-29T23:21:36.087Z,-0.62
2022-11-29T23:24:05.114Z,-0.62
2022-11-29T23:26:39.730Z,-0.68
2022-11-29T23:29:11.225Z,-0.68
2022-11-29T23:31:40.567Z,-0.69
2022-11-29T23:34:09.650Z,-0.70
2022-11-29T23:36:37.981Z,-0.70
2022-11-29T23:39:07.348Z,-0.68
2022-11-29T23:41:38.620Z,-0.67
2022-11-29T23:44:08.823Z,-0.68
2022-11-29T23:46:37.178Z,-0.68
2022-11-29T23:49:05.457Z,-0.71
2022-11-29T23:51:33.741Z,-0.73
2022-11-29T23:54:01.998Z,-0.75
2022-11-29T23:56:35.493Z,-0.77
2022-11-29T23:59:04.237Z,-0.81
